Time;durP1;ratioP1;P1;durP2;ratioP2;P2;SDS_P1;SDS_P2;PMS_P1;PMS_P2;Temp;Humidity;BMP_temperature;BMP_pressure;BME280_temperature;BME280_humidity;BME280_pressure;Samples;Min_cycle;Max_cycle;Signal;HPM_P1;HPM_P2
2023/03/03 00:00:43;;;;;;;40.03;26.25;;;;;;;1.06;100.00;102242.50;5074172;28;20060;-71
2023/03/03 00:03:11;;;;;;;39.08;25.83;;;;;;;1.03;100.00;102240.63;5073910;28;20044;-67
2023/03/03 00:05:37;;;;;;;39.85;25.30;;;;;;;1.28;100.00;102242.22;5073977;28;20020;-68
2023/03/03 00:08:03;;;;;;;38.33;24.83;;;;;;;1.34;100.00;102237.41;5074116;28;20047;-68
2023/03/03 00:10:29;;;;;;;38.15;24.80;;;;;;;1.38;100.00;102242.00;5073921;28;20032;-66
2023/03/03 00:12:54;;;;;;;38.78;25.33;;;;;;;1.39;100.00;102238.59;5073962;28;20433;-67
2023/03/03 00:15:22;;;;;;;39.88;25.55;;;;;;;1.42;100.00;102234.38;5073777;28;20029;-67
2023/03/03 00:17:48;;;;;;;40.75;26.75;;;;;;;1.45;100.00;102238.06;5073660;28;20107;-66
2023/03/03 00:20:30;;;;;;;39.58;25.30;;;;;;;1.51;100.00;102251.50;5073965;28;20056;-67
2023/03/03 00:23:12;;;;;;;38.33;23.88;;;;;;;1.43;100.00;102246.59;5073971;28;20044;-69
2023/03/03 00:25:43;;;;;;;37.67;23.67;;;;;;;1.42;100.00;102250.91;5070161;28;20020;-66
2023/03/03 00:28:14;;;;;;;39.45;24.90;;;;;;;1.44;100.00;102245.81;5070082;28;20036;-66
2023/03/03 00:30:40;;;;;;;37.65;24.25;;;;;;;1.46;100.00;102246.81;5070195;28;20151;-68
2023/03/03 00:33:18;;;;;;;38.08;24.17;;;;;;;1.48;100.00;102247.81;5073535;28;20107;-69
2023/03/03 00:35:44;;;;;;;38.03;24.23;;;;;;;1.45;100.00;102242.41;5070833;28;20048;-66
2023/03/03 00:38:13;;;;;;;38.38;24.80;;;;;;;1.49;100.00;102244.41;5073372;28;20061;-69
2023/03/03 00:40:39;;;;;;;38.78;24.15;;;;;;;1.49;100.00;102247.91;5069620;28;20176;-66
2023/03/03 00:43:21;;;;;;;38.33;24.58;;;;;;;1.51;100.00;102240.19;5069492;28;20056;-67
2023/03/03 00:45:55;;;;;;;38.50;24.27;;;;;;;1.43;100.00;102252.72;5071052;28;20100;-66
2023/03/03 00:48:27;;;;;;;38.75;24.48;;;;;;;1.48;100.00;102255.63;5073350;28;20052;-67
2023/03/03 00:50:58;;;;;;;37.17;23.92;;;;;;;1.50;100.00;102262.75;5073019;28;20020;-66
2023/03/03 00:53:29;;;;;;;37.83;23.55;;;;;;;1.39;100.00;102254.22;5073000;28;20021;-73
2023/03/03 00:55:55;;;;;;;37.38;23.52;;;;;;;1.41;100.00;102253.44;5073246;28;20029;-68
2023/03/03 00:58:22;;;;;;;38.28;24.17;;;;;;;1.50;100.00;102249.72;5073258;28;20415;-67
2023/03/03 01:00:51;;;;;;;37.78;23.80;;;;;;;1.37;100.00;102252.34;5072827;28;20021;-67
2023/03/03 01:03:20;;;;;;;38.05;23.75;;;;;;;1.29;100.00;102254.44;5072950;28;20052;-66
2023/03/03 01:05:46;;;;;;;37.95;24.23;;;;;;;1.45;100.00;102255.44;5073215;28;20032;-67
2023/03/03 01:08:11;;;;;;;37.00;23.10;;;;;;;1.44;100.00;102253.63;5072181;28;20470;-66
2023/03/03 01:11:00;;;;;;;37.45;23.85;;;;;;;1.45;100.00;102265.84;5073022;28;20382;-70
2023/03/03 01:13:30;;;;;;;39.00;23.92;;;;;;;1.43;100.00;102262.22;5062926;28;20032;-68
2023/03/03 01:15:55;;;;;;;37.60;23.45;;;;;;;1.43;100.00;102262.22;5073156;28;20413;-68
2023/03/03 01:18:20;;;;;;;36.58;23.38;;;;;;;1.50;100.00;102261.81;5072658;28;20029;-68
2023/03/03 01:20:46;;;;;;;36.67;23.58;;;;;;;1.44;100.00;102266.66;5072631;28;20089;-69
2023/03/03 01:23:12;;;;;;;37.95;24.00;;;;;;;1.51;100.00;102266.25;5072715;28;20119;-67
2023/03/03 01:25:37;;;;;;;37.65;23.65;;;;;;;1.53;100.00;102264.63;5072576;28;20071;-69
2023/03/03 01:28:03;;;;;;;37.83;24.15;;;;;;;1.49;100.00;102265.25;5072768;28;20029;-65
2023/03/03 01:30:29;;;;;;;37.92;24.55;;;;;;;1.45;100.00;102271.06;5072616;28;20032;-67
2023/03/03 01:32:55;;;;;;;37.33;23.60;;;;;;;1.43;100.00;102267.44;5072592;28;20032;-68
2023/03/03 01:35:20;;;;;;;38.78;24.35;;;;;;;1.42;100.00;102265.66;5072738;28;20029;-69
2023/03/03 01:37:45;;;;;;;37.40;23.63;;;;;;;1.38;100.00;102267.16;5072387;28;20066;-71
2023/03/03 01:40:19;;;;;;;38.15;23.73;;;;;;;1.35;100.00;102275.66;5072126;28;20045;-70
2023/03/03 01:42:44;;;;;;;37.90;23.65;;;;;;;1.35;100.00;102275.66;5072451;28;20041;-74
2023/03/03 01:45:17;;;;;;;39.53;24.70;;;;;;;1.29;100.00;102279.59;5072473;28;20020;-65
2023/03/03 01:48:05;;;;;;;;;;;;;;;1.41;100.00;102287.31;5069685;28;20032;-71
2023/03/03 01:51:10;;;;;;;37.88;23.95;;;;;;;1.33;100.00;102292.03;5072353;28;19923;-68
2023/03/03 01:53:38;;;;;;;38.47;24.45;;;;;;;1.20;100.00;102280.78;5068608;28;20032;-66
2023/03/03 01:56:06;;;;;;;37.83;24.13;;;;;;;1.18;100.00;102281.50;5072270;28;20097;-67
2023/03/03 01:58:36;;;;;;;39.72;24.77;;;;;;;1.10;100.00;102270.56;5072234;28;20074;-70
2023/03/03 02:01:10;;;;;;;39.80;24.70;;;;;;;1.08;100.00;102273.88;5073272;28;20029;-69
2023/03/03 02:03:36;;;;;;;37.95;24.27;;;;;;;1.10;100.00;102272.28;5070914;28;20067;-66
2023/03/03 02:06:06;;;;;;;39.13;24.73;;;;;;;1.08;100.00;102271.25;5074103;28;20058;-66
2023/03/03 02:08:58;;;;;;;38.30;24.35;;;;;;;1.13;100.00;102269.88;5075674;28;20039;-66
2023/03/03 02:11:25;;;;;;;38.97;23.70;;;;;;;1.09;100.00;102260.06;5073035;28;20495;-67
2023/03/03 02:13:50;;;;;;;37.42;23.60;;;;;;;1.07;100.00;102274.69;5073372;28;20063;-66
2023/03/03 02:16:16;;;;;;;38.53;24.05;;;;;;;1.03;100.00;102279.72;5072136;28;20059;-66
2023/03/03 02:18:41;;;;;;;38.85;24.38;;;;;;;1.00;100.00;102276.88;5074114;28;20497;-67
2023/03/03 02:21:14;;;;;;;39.22;24.15;;;;;;;0.96;100.00;102281.78;5076279;28;20033;-66
2023/03/03 02:23:48;;;;;;;;;;;;;;;1.15;100.00;102278.69;5072741;28;20082;-66
2023/03/03 02:26:15;;;;;;;37.22;23.05;;;;;;;0.98;100.00;102273.28;5073146;28;19916;-66
2023/03/03 02:28:40;;;;;;;37.20;22.92;;;;;;;0.85;100.00;102270.66;5075859;28;20024;-67
2023/03/03 02:31:13;;;;;;;37.83;23.13;;;;;;;0.89;100.00;102283.09;5071895;28;20033;-68
2023/03/03 02:33:44;;;;;;;36.90;22.95;;;;;;;0.93;100.00;102282.47;5071978;28;20028;-66
2023/03/03 02:36:15;;;;;;;38.25;23.10;;;;;;;0.80;100.00;102278.19;5072194;28;20024;-66
2023/03/03 02:38:53;;;;;;;38.35;23.05;;;;;;;0.71;100.00;102277.53;5072242;28;20025;-66
2023/03/03 02:41:39;;;;;;;39.17;23.30;;;;;;;0.64;100.00;102271.03;5075459;28;20041;-66
2023/03/03 02:44:19;;;;;;;39.08;23.73;;;;;;;0.58;100.00;102275.81;5075642;28;20036;-67
2023/03/03 02:46:46;;;;;;;38.90;23.42;;;;;;;0.59;100.00;102277.63;5072598;28;20356;-66
2023/03/03 02:49:14;;;;;;;38.97;23.58;;;;;;;0.56;100.00;102281.72;5075238;28;20486;-67
2023/03/03 02:51:40;;;;;;;38.80;23.48;;;;;;;0.49;100.00;102285.59;5075353;28;20036;-70
2023/03/03 02:54:07;;;;;;;40.63;24.50;;;;;;;0.42;100.00;102280.78;5075559;28;20107;-67
2023/03/03 02:56:33;;;;;;;39.08;23.77;;;;;;;0.41;100.00;102276.34;5075307;28;20031;-66
2023/03/03 02:58:58;;;;;;;39.65;23.35;;;;;;;0.44;100.00;102274.88;5075151;28;20471;-67
2023/03/03 03:01:24;;;;;;;38.22;23.17;;;;;;;0.44;100.00;102285.28;5075323;28;20036;-73
2023/03/03 03:03:49;;;;;;;36.78;22.23;;;;;;;0.44;100.00;102276.59;5075345;28;20126;-66
2023/03/03 03:06:15;;;;;;;38.83;22.92;;;;;;;0.45;100.00;102283.56;5075092;28;20028;-66
2023/03/03 03:08:40;;;;;;;36.65;22.08;;;;;;;0.43;100.00;102279.97;5075364;28;20133;-66
2023/03/03 03:11:06;;;;;;;38.00;23.25;;;;;;;0.40;100.00;102283.28;5075004;28;20043;-68
2023/03/03 03:13:31;;;;;;;37.35;22.50;;;;;;;0.39;100.00;102285.78;5074894;28;20387;-68
2023/03/03 03:15:58;;;;;;;37.65;22.50;;;;;;;0.39;100.00;102278.84;5075402;28;20032;-68
2023/03/03 03:18:23;;;;;;;38.63;23.05;;;;;;;0.38;100.00;102281.34;5074856;28;20025;-69
2023/03/03 03:20:49;;;;;;;37.40;22.05;;;;;;;0.43;100.00;102283.47;5075133;28;20035;-67
2023/03/03 03:23:15;;;;;;;38.38;23.00;;;;;;;0.40;100.00;102285.88;5074753;28;20437;-69
2023/03/03 03:25:44;;;;;;;36.72;22.83;;;;;;;0.48;100.00;102281.19;5074755;28;20075;-70
2023/03/03 03:28:14;;;;;;;38.10;22.70;;;;;;;0.53;100.00;102285.00;5071214;28;20029;-70
2023/03/03 03:30:40;;;;;;;38.78;22.70;;;;;;;0.51;100.00;102289.19;5070259;28;20028;-67
2023/03/03 03:33:06;;;;;;;38.85;22.98;;;;;;;0.57;100.00;102294.84;5074677;28;20033;-67
2023/03/03 03:35:33;;;;;;;38.88;22.95;;;;;;;0.59;100.00;102293.22;5074568;28;20097;-68
2023/03/03 03:37:58;;;;;;;37.97;23.20;;;;;;;0.53;100.00;102282.41;5074811;28;20032;-67
2023/03/03 03:40:25;;;;;;;38.40;22.92;;;;;;;0.50;100.00;102284.81;5074529;28;20053;-67
2023/03/03 03:42:51;;;;;;;39.15;23.63;;;;;;;0.50;100.00;102292.63;5079349;28;20028;-68
2023/03/03 03:45:17;;;;;;;37.17;22.35;;;;;;;0.53;100.00;102292.81;5085428;28;20028;-66
2023/03/03 03:47:42;;;;;;;36.83;21.73;;;;;;;0.56;100.00;102298.22;5086511;28;20039;-68
2023/03/03 03:50:09;;;;;;;36.70;21.55;;;;;;;0.52;100.00;102301.41;5085519;28;20078;-66
2023/03/03 03:52:34;;;;;;;36.90;21.38;;;;;;;0.49;100.00;102296.91;5082642;28;20032;-65
2023/03/03 03:55:00;;;;;;;35.30;20.75;;;;;;;0.44;100.00;102303.50;5083109;28;20069;-65
2023/03/03 03:57:25;;;;;;;34.80;20.45;;;;;;;0.37;100.00;102303.00;5080883;28;20021;-65
2023/03/03 03:59:51;;;;;;;35.00;20.80;;;;;;;0.33;100.00;102301.84;5079471;28;20025;-68
2023/03/03 04:02:16;;;;;;;36.38;21.00;;;;;;;0.30;100.00;102305.13;5075331;28;20033;-66
2023/03/03 04:04:42;;;;;;;36.78;21.73;;;;;;;0.32;100.00;102305.25;5074056;28;20402;-67
2023/03/03 04:07:07;;;;;;;34.90;20.17;;;;;;;0.22;100.00;102311.53;5073991;28;20024;-69
2023/03/03 04:09:33;;;;;;;35.30;20.35;;;;;;;0.20;100.00;102307.91;5072624;28;20103;-67
2023/03/03 04:11:59;;;;;;;34.42;19.95;;;;;;;0.13;100.00;102314.38;5074077;28;20033;-70
2023/03/03 04:14:24;;;;;;;33.75;19.48;;;;;;;0.15;100.00;102314.50;5073788;28;20028;-69
2023/03/03 04:16:49;;;;;;;34.70;19.42;;;;;;;0.08;100.00;102304.44;5073711;28;20029;-73
2023/03/03 04:19:15;;;;;;;35.53;20.02;;;;;;;0.06;100.00;102306.03;5072662;28;20035;-67
2023/03/03 04:21:40;;;;;;;35.78;20.35;;;;;;;0.02;100.00;102304.03;5073974;28;20120;-68
2023/03/03 04:24:06;;;;;;;35.17;20.02;;;;;;;0.06;100.00;102314.75;5073779;28;20029;-72
2023/03/03 04:26:32;;;;;;;35.33;20.33;;;;;;;0.10;100.00;102319.38;5073693;28;20040;-71
2023/03/03 04:28:57;;;;;;;35.70;20.23;;;;;;;0.06;100.00;102313.81;5073486;28;20514;-69
2023/03/03 04:31:24;;;;;;;36.30;20.98;;;;;;;0.10;100.00;102316.78;5073694;28;20028;-66
2023/03/03 04:33:50;;;;;;;36.28;20.50;;;;;;;0.10;100.00;102315.84;5073934;28;20086;-67
2023/03/03 04:36:15;;;;;;;35.30;20.48;;;;;;;0.13;100.00;102317.00;5073397;28;20021;-67
2023/03/03 04:38:41;;;;;;;36.05;20.42;;;;;;;0.15;100.00;102315.38;5073528;28;20110;-68
2023/03/03 04:41:06;;;;;;;36.03;20.02;;;;;;;0.13;100.00;102322.19;5073008;28;20502;-67
2023/03/03 04:43:31;;;;;;;35.38;20.20;;;;;;;0.15;100.00;102324.91;5073133;28;20040;-66
2023/03/03 04:45:57;;;;;;;34.92;19.60;;;;;;;0.13;100.00;102311.78;5073430;28;20433;-66
2023/03/03 04:48:22;;;;;;;35.72;19.90;;;;;;;0.13;100.00;102319.59;5073150;28;20056;-69
2023/03/03 04:50:47;;;;;;;36.00;20.58;;;;;;;0.13;100.00;102309.19;5073058;28;20032;-66
2023/03/03 04:53:13;;;;;;;35.55;19.88;;;;;;;0.13;100.00;102313.47;5072045;28;20056;-67
2023/03/03 04:55:39;;;;;;;35.80;18.98;;;;;;;0.14;100.00;102312.69;5073308;28;20025;-66
2023/03/03 04:58:05;;;;;;;34.83;19.33;;;;;;;0.11;100.00;102321.16;5072941;28;20028;-67
2023/03/03 05:00:31;;;;;;;34.80;19.58;;;;;;;0.13;100.00;102321.28;5073355;28;20524;-67
2023/03/03 05:02:56;;;;;;;36.75;20.40;;;;;;;0.10;100.00;102318.47;5072736;28;20360;-66
2023/03/03 05:05:22;;;;;;;36.03;19.45;;;;;;;0.10;100.00;102321.06;5072836;28;20087;-67
2023/03/03 05:07:47;;;;;;;34.70;18.70;;;;;;;0.08;100.00;102314.84;5073015;28;20546;-67
2023/03/03 05:10:12;;;;;;;35.88;19.40;;;;;;;0.12;100.00;102320.38;5072708;28;20040;-67
2023/03/03 05:12:38;;;;;;;35.70;19.70;;;;;;;0.12;100.00;102319.50;5072981;28;20063;-73
2023/03/03 05:15:04;;;;;;;35.22;19.33;;;;;;;0.11;100.00;102317.66;5072678;28;20028;-71
2023/03/03 05:17:30;;;;;;;37.75;20.35;;;;;;;0.09;100.00;102320.16;5072745;28;20029;-72
2023/03/03 05:19:56;;;;;;;37.50;20.00;;;;;;;0.15;100.00;102322.28;5072850;28;20052;-70
2023/03/03 05:22:22;;;;;;;36.40;19.95;;;;;;;0.15;100.00;102325.78;5072933;28;20040;-73
2023/03/03 05:24:48;;;;;;;36.35;20.50;;;;;;;0.22;100.00;102327.13;5072554;28;20471;-72
2023/03/03 05:27:14;;;;;;;35.85;19.88;;;;;;;0.22;100.00;102336.63;5073265;28;20028;-73
2023/03/03 05:29:39;;;;;;;37.28;20.55;;;;;;;0.20;100.00;102333.91;5072575;28;20549;-71
2023/03/03 05:32:04;;;;;;;37.58;19.92;;;;;;;0.20;100.00;102326.09;5072492;28;20138;-73
2023/03/03 05:34:30;;;;;;;35.08;19.05;;;;;;;0.23;100.00;102333.22;5072649;28;20051;-70
2023/03/03 05:36:55;;;;;;;34.80;18.88;;;;;;;0.28;100.00;102332.75;5072551;28;20028;-70
2023/03/03 05:39:20;;;;;;;36.63;19.55;;;;;;;0.26;100.00;102334.38;5072489;28;20052;-72
2023/03/03 05:41:46;;;;;;;36.47;19.42;;;;;;;0.28;100.00;102332.75;5072379;28;20052;-70
2023/03/03 05:44:11;;;;;;;36.03;19.00;;;;;;;0.30;100.00;102338.97;5072439;28;20497;-70
2023/03/03 05:46:37;;;;;;;36.28;19.20;;;;;;;0.29;100.00;102331.97;5072395;28;20113;-70
2023/03/03 05:49:02;;;;;;;35.60;19.08;;;;;;;0.31;100.00;102332.97;5072517;28;20503;-70
2023/03/03 05:51:28;;;;;;;35.67;18.77;;;;;;;0.31;100.00;102340.78;5072334;28;20028;-70
2023/03/03 05:53:53;;;;;;;34.83;18.83;;;;;;;0.32;100.00;102326.97;5074888;28;20025;-66
2023/03/03 05:56:18;;;;;;;36.17;19.35;;;;;;;0.36;100.00;102335.00;5076442;28;20120;-67
2023/03/03 05:58:44;;;;;;;36.97;19.30;;;;;;;0.36;100.00;102337.59;5076314;28;20082;-66
2023/03/03 06:01:10;;;;;;;36.45;19.60;;;;;;;0.36;100.00;102332.41;5076485;28;20070;-65
2023/03/03 06:03:35;;;;;;;35.25;19.17;;;;;;;0.35;100.00;102341.91;5076175;28;20036;-65
2023/03/03 06:06:00;;;;;;;35.63;18.67;;;;;;;0.41;100.00;102336.19;5076312;28;20118;-66
2023/03/03 06:08:26;;;;;;;36.17;19.55;;;;;;;0.33;100.00;102336.56;5076808;28;20040;-65
2023/03/03 06:10:51;;;;;;;35.35;19.25;;;;;;;0.38;100.00;102336.00;5076286;28;20324;-69
2023/03/03 06:13:16;;;;;;;35.92;18.88;;;;;;;0.42;100.00;102336.31;5076098;28;20036;-67
2023/03/03 06:15:42;;;;;;;35.28;18.50;;;;;;;0.46;100.00;102342.63;5076312;28;20021;-67
2023/03/03 06:18:08;;;;;;;35.88;18.88;;;;;;;0.46;100.00;102348.72;5075981;28;20070;-68
2023/03/03 06:20:34;;;;;;;34.85;17.92;;;;;;;0.51;100.00;102349.97;5076205;28;20112;-66
2023/03/03 06:23:00;;;;;;;36.13;18.95;;;;;;;0.50;100.00;102355.06;5076073;28;20032;-67
2023/03/03 06:25:25;;;;;;;36.42;19.58;;;;;;;0.50;100.00;102362.88;5075870;28;20028;-67
2023/03/03 06:27:51;;;;;;;36.42;18.80;;;;;;;0.52;100.00;102361.28;5075781;28;20060;-66
2023/03/03 06:30:17;;;;;;;37.28;19.00;;;;;;;0.52;100.00;102364.81;5075994;28;20364;-65
2023/03/03 06:32:43;;;;;;;34.13;18.65;;;;;;;0.57;100.00;102366.78;5075926;28;20037;-68
2023/03/03 06:35:09;;;;;;;36.08;19.13;;;;;;;0.63;100.00;102364.63;5071791;28;20107;-66
2023/03/03 06:37:34;;;;;;;36.67;19.50;;;;;;;0.65;100.00;102368.25;5075532;28;20112;-66
2023/03/03 06:39:59;;;;;;;35.67;18.92;;;;;;;0.69;100.00;102378.06;5074073;28;20139;-68
2023/03/03 06:42:25;;;;;;;37.10;19.73;;;;;;;0.71;100.00;102380.78;5074804;28;20059;-71
2023/03/03 06:44:50;;;;;;;36.05;19.48;;;;;;;0.73;100.00;102386.97;5073014;28;20067;-67
2023/03/03 06:47:15;;;;;;;36.55;19.10;;;;;;;0.72;100.00;102386.09;5070898;28;20029;-69
2023/03/03 06:49:41;;;;;;;38.92;20.17;;;;;;;0.77;100.00;102386.41;5067832;28;20089;-73
2023/03/03 06:52:17;;;;;;;37.78;19.90;;;;;;;0.76;100.00;102401.13;5071674;28;20040;-67
2023/03/03 06:54:43;;;;;;;36.75;19.58;;;;;;;0.76;100.00;102395.91;5072191;28;20025;-67
2023/03/03 06:57:26;;;;;;;37.25;19.95;;;;;;;0.79;100.00;102398.72;5071343;28;20458;-69
2023/03/03 06:59:54;;;;;;;36.22;20.00;;;;;;;0.78;100.00;102403.84;5071311;28;20024;-67
2023/03/03 07:02:20;;;;;;;37.25;19.65;;;;;;;0.80;100.00;102405.75;5066369;28;20479;-67
2023/03/03 07:04:46;;;;;;;37.70;20.13;;;;;;;0.84;100.00;102404.25;5074647;28;20036;-69
2023/03/03 07:07:20;;;;;;;36.92;19.35;;;;;;;0.88;100.00;102402.78;5066778;28;20082;-72
2023/03/03 07:09:51;;;;;;;36.13;19.40;;;;;;;0.92;100.00;102408.28;5070043;28;20037;-69
2023/03/03 07:12:21;;;;;;;35.88;19.63;;;;;;;0.97;100.00;102411.22;5073748;28;20086;-68
2023/03/03 07:14:54;;;;;;;36.80;19.88;;;;;;;0.97;100.00;102409.50;5072066;28;20139;-67
2023/03/03 07:17:22;;;;;;;36.53;19.90;;;;;;;0.99;100.00;102402.72;5076653;28;20074;-72
2023/03/03 07:19:48;;;;;;;37.33;20.58;;;;;;;1.05;100.00;102404.84;5070595;28;20547;-72
2023/03/03 07:22:16;;;;;;;38.85;21.27;;;;;;;1.10;100.00;102407.75;5071887;28;20464;-74
2023/03/03 07:24:45;;;;;;;38.63;21.35;;;;;;;1.11;100.00;102409.56;5068772;28;20069;-72
2023/03/03 07:27:25;;;;;;;38.67;21.15;;;;;;;1.10;100.00;102408.63;5074768;28;20495;-72
2023/03/03 07:29:53;;;;;;;40.58;22.60;;;;;;;1.14;100.00;102412.38;5070314;28;20032;-71
2023/03/03 07:32:24;;;;;;;38.08;21.52;;;;;;;1.12;100.00;102417.47;5061961;28;20021;-73
2023/03/03 07:34:52;;;;;;;38.67;21.83;;;;;;;1.15;100.00;102416.75;5076375;28;20078;-71
2023/03/03 07:37:51;;;;;;;39.83;22.25;;;;;;;1.26;100.00;102430.53;5074341;28;20024;-72
2023/03/03 07:40:34;;;;;;;37.42;20.60;;;;;;;1.28;100.00;102431.53;5034585;28;20041;-73
2023/03/03 07:43:00;;;;;;;37.92;20.27;;;;;;;1.30;100.00;102428.22;5070488;28;20387;-73
2023/03/03 07:45:28;;;;;;;36.50;20.02;;;;;;;1.27;100.00;102428.03;5071221;28;20024;-72
2023/03/03 07:48:12;;;;;;;37.05;20.02;;;;;;;1.27;100.00;102427.09;5072604;28;20033;-73
2023/03/03 07:50:39;;;;;;;36.83;20.38;;;;;;;1.30;100.00;102430.81;5064872;28;20115;-71
2023/03/03 07:53:14;;;;;;;37.65;20.85;;;;;;;1.35;100.00;102437.22;5078884;28;20047;-72
2023/03/03 07:55:39;;;;;;;37.67;20.67;;;;;;;1.38;100.00;102439.16;5071441;28;20021;-71
2023/03/03 07:58:15;;;;;;;38.85;20.85;;;;;;;1.37;100.00;102446.09;5063729;28;20030;-71
2023/03/03 08:00:59;;;;;;;36.97;20.10;;;;;;;1.43;100.00;102445.59;5064207;28;20111;-71
2023/03/03 08:03:24;;;;;;;37.78;21.17;;;;;;;1.46;100.00;102439.69;5064166;28;20106;-71
2023/03/03 08:05:50;;;;;;;36.63;19.45;;;;;;;1.48;100.00;102443.28;5066461;28;20462;-72
2023/03/03 08:08:35;;;;;;;37.28;20.50;;;;;;;1.50;100.00;102449.50;5078273;28;20028;-71
2023/03/03 08:11:02;;;;;;;34.63;18.70;;;;;;;1.53;100.00;102454.91;5070612;28;20048;-69
2023/03/03 08:13:27;;;;;;;35.92;18.63;;;;;;;1.52;100.00;102455.72;5065398;28;20032;-72
2023/03/03 08:16:08;;;;;;;34.83;18.50;;;;;;;1.55;100.00;102446.41;5069385;28;20028;-74
2023/03/03 08:18:40;;;;;;;34.03;17.65;;;;;;;1.58;100.00;102456.13;5063018;28;20052;-73
2023/03/03 08:21:10;;;;;;;34.50;18.13;;;;;;;1.65;100.00;102460.97;5067243;28;20383;-72
2023/03/03 08:23:35;;;;;;;33.63;16.90;;;;;;;1.69;100.00;102464.66;5067929;28;20056;-73
2023/03/03 08:26:01;;;;;;;32.70;16.85;;;;;;;1.77;100.00;102470.41;5063996;28;20071;-74
2023/03/03 08:28:26;;;;;;;32.80;16.42;;;;;;;1.86;100.00;102468.38;5077307;28;20039;-74
2023/03/03 08:30:51;;;;;;;32.63;16.88;;;;;;;1.91;100.00;102464.38;5060490;28;20101;-71
2023/03/03 08:33:17;;;;;;;32.22;16.83;;;;;;;1.97;100.00;102464.78;5068753;28;20029;-71
2023/03/03 08:35:44;;;;;;;32.47;17.13;;;;;;;2.09;100.00;102465.56;5067397;28;20074;-71
2023/03/03 08:38:12;;;;;;;34.53;17.67;;;;;;;2.26;100.00;102476.22;5063007;28;20032;-71
2023/03/03 08:40:37;;;;;;;33.67;18.20;;;;;;;2.35;100.00;102474.19;5066689;28;20174;-72
2023/03/03 08:43:03;;;;;;;35.75;19.48;;;;;;;2.35;100.00;102475.91;5070572;28;20115;-71
2023/03/03 08:45:30;;;;;;;36.38;19.95;;;;;;;2.34;100.00;102474.97;5068874;28;20040;-71
2023/03/03 08:47:55;;;;;;;36.97;20.52;;;;;;;2.35;100.00;102478.50;5070271;28;20398;-71
2023/03/03 08:50:21;;;;;;;37.60;19.88;;;;;;;2.33;100.00;102486.25;5067928;28;20028;-67
2023/03/03 08:52:46;;;;;;;34.78;18.55;;;;;;;2.26;100.00;102491.88;5075136;28;20498;-67
2023/03/03 08:55:12;;;;;;;35.78;19.20;;;;;;;2.26;100.00;102494.47;5069267;28;20036;-68
2023/03/03 08:57:38;;;;;;;35.30;18.70;;;;;;;2.30;100.00;102493.88;5071344;28;20024;-66
2023/03/03 09:00:09;;;;;;;35.35;18.33;;;;;;;2.33;100.00;102495.75;5072920;28;20028;-66
2023/03/03 09:02:35;;;;;;;34.83;18.85;;;;;;;2.37;100.00;102496.03;5073104;28;20423;-67
2023/03/03 09:05:00;;;;;;;34.47;18.52;;;;;;;2.30;100.00;102499.09;5073067;28;20045;-67
2023/03/03 09:07:25;;;;;;;33.90;18.00;;;;;;;2.38;100.00;102503.09;5072874;28;20491;-68
2023/03/03 09:09:51;;;;;;;34.03;18.25;;;;;;;2.41;100.00;102494.56;5073057;28;20105;-68
2023/03/03 09:12:49;;;;;;;33.63;18.00;;;;;;;2.54;100.00;102498.84;5071565;28;20033;-66
2023/03/03 09:15:29;;;;;;;34.38;18.08;;;;;;;2.59;100.00;102502.63;5060095;28;20045;-68
2023/03/03 09:18:18;;;;;;;32.22;16.42;;;;;;;2.64;100.00;102506.47;5069390;28;20069;-69
2023/03/03 09:20:43;;;;;;;32.25;16.05;;;;;;;2.63;100.00;102508.97;5071799;28;20032;-67
2023/03/03 09:23:32;;;;;;;31.15;15.50;;;;;;;2.80;100.00;102513.56;5072691;28;20032;-67
2023/03/03 09:26:21;;;;;;;29.35;14.60;;;;;;;3.07;100.00;102509.16;5069754;28;20028;-66
2023/03/03 09:28:46;;;;;;;30.30;15.50;;;;;;;3.17;100.00;102507.09;5072033;28;20029;-66
2023/03/03 09:31:33;;;;;;;30.85;15.15;;;;;;;3.22;100.00;102509.16;5081253;28;20085;-66
2023/03/03 09:33:59;;;;;;;29.00;14.75;;;;;;;3.33;100.00;102514.16;5084260;28;20027;-65
2023/03/03 09:36:28;;;;;;;28.20;13.93;;;;;;;3.33;100.00;102509.81;5088516;28;20024;-66
2023/03/03 09:38:56;;;;;;;27.92;13.98;;;;;;;3.40;100.00;102516.31;5079559;28;20033;-66
2023/03/03 09:41:52;;;;;;;30.60;15.77;;;;;;;3.53;100.00;102510.13;5076815;28;20055;-66
2023/03/03 09:44:54;;;;;;;28.38;14.02;;;;;;;3.92;100.00;102516.78;5081336;28;20181;-65
2023/03/03 09:47:54;;;;;;;28.38;13.55;;;;;;;4.35;100.00;102510.47;5079469;28;20024;-66
2023/03/03 09:51:01;;;;;;;26.85;12.52;;;;;;;4.55;100.00;102516.84;5074387;28;20390;-71
2023/03/03 09:53:35;;;;;;;26.10;12.05;;;;;;;4.43;100.00;102511.81;5045518;28;20040;-66
2023/03/03 09:56:07;;;;;;;25.75;11.82;;;;;;;4.39;100.00;102516.81;5072268;28;20487;-71
2023/03/03 09:58:35;;;;;;;26.80;12.30;;;;;;;4.10;100.00;102506.47;5072522;28;20115;-71
2023/03/03 10:01:38;;;;;;;26.65;11.75;;;;;;;4.22;100.00;102519.34;5072508;28;20032;-70
2023/03/03 10:04:25;;;;;;;26.05;12.38;;;;;;;4.27;100.00;102520.53;5070072;28;20036;-71
2023/03/03 10:07:11;;;;;;;26.85;12.60;;;;;;;4.35;100.00;102519.25;5068407;28;20035;-69
2023/03/03 10:09:55;;;;;;;24.92;11.25;;;;;;;4.44;100.00;102521.50;5070638;28;20028;-66
2023/03/03 10:12:32;;;;;;;25.63;11.27;;;;;;;4.58;100.00;102518.75;5068351;28;20082;-66
2023/03/03 10:15:22;;;;;;;25.23;11.77;;;;;;;4.65;100.00;102526.13;5069498;28;20379;-66
2023/03/03 10:17:52;;;;;;;26.05;12.23;;;;;;;4.69;100.00;102526.38;5072286;28;20033;-69
2023/03/03 10:20:53;;;;;;;24.60;11.40;;;;;;;4.88;100.00;102522.16;5072092;28;20055;-69
2023/03/03 10:23:26;;;;;;;25.52;11.65;;;;;;;4.94;100.00;102527.72;5071928;28;20119;-68
2023/03/03 10:26:20;;;;;;;24.95;10.93;;;;;;;5.05;100.00;102525.66;5064185;28;20048;-66
2023/03/03 10:29:04;;;;;;;24.42;11.00;;;;;;;5.02;100.00;102522.88;5069166;28;20025;-69
2023/03/03 10:31:36;;;;;;;24.83;11.00;;;;;;;4.95;100.00;102526.91;5071503;28;20086;-66
2023/03/03 10:34:42;;;;;;;25.00;11.48;;;;;;;5.05;100.00;102525.66;5071826;28;20025;-70
2023/03/03 10:37:40;;;;;;;25.33;11.68;;;;;;;5.57;100.00;102528.41;5067830;28;20024;-68
2023/03/03 10:40:33;;;;;;;25.33;11.65;;;;;;;5.80;100.00;102520.81;5074087;28;20053;-65
2023/03/03 10:43:10;;;;;;;24.80;11.10;;;;;;;5.90;100.00;102528.34;5074850;28;20367;-67
2023/03/03 10:45:57;;;;;;;25.60;11.43;;;;;;;5.84;100.00;102525.41;5075593;28;20025;-65
2023/03/03 10:48:49;;;;;;;25.95;12.23;;;;;;;5.87;100.00;102525.56;5072404;28;20059;-67
2023/03/03 10:51:30;;;;;;;24.58;11.32;;;;;;;5.91;100.00;102516.09;5072519;28;20024;-66
2023/03/03 10:54:19;;;;;;;25.38;11.98;;;;;;;5.98;100.00;102520.88;5075379;28;20029;-65
2023/03/03 10:56:58;;;;;;;25.40;11.25;;;;;;;6.68;100.00;102526.84;5072507;28;20029;-65
2023/03/03 10:59:59;;;;;;;25.83;11.45;;;;;;;7.13;100.00;102521.91;5075140;28;20020;-68
2023/03/03 11:03:06;;;;;;;24.35;11.02;;;;;;;6.94;100.00;102520.19;5064903;28;20119;-66
2023/03/03 11:05:51;;;;;;;25.38;11.98;;;;;;;6.98;100.00;102525.63;5074911;28;20028;-67
2023/03/03 11:08:25;;;;;;;24.55;11.13;;;;;;;7.05;100.00;102518.03;5072746;28;20020;-66
2023/03/03 11:11:32;;;;;;;24.67;11.60;;;;;;;7.15;100.00;102525.53;5075330;28;20059;-66
2023/03/03 11:14:17;;;;;;;24.35;11.30;;;;;;;7.92;100.00;102518.34;5073893;28;20044;-70
2023/03/03 11:17:22;;;;;;;25.17;11.77;;;;;;;8.01;100.00;102517.81;5071849;28;20479;-66
2023/03/03 11:20:11;;;;;;;24.63;11.57;;;;;;;7.70;100.00;102516.50;5055288;28;20119;-66
2023/03/03 11:22:52;;;;;;;25.10;11.65;;;;;;;7.30;100.00;102520.94;5070951;28;20025;-67
2023/03/03 11:25:39;;;;;;;24.38;11.57;;;;;;;7.31;100.00;102522.75;5072311;28;20039;-67
2023/03/03 11:28:19;;;;;;;25.30;11.38;;;;;;;7.57;100.00;102520.38;5074762;28;20028;-66